sensor_id;sensor_type;location;lat;lon;timestamp;pressure;altitude;pressure_sealevel;temperature;humidity
47054;BME280;32811;52.382;5.270;2023-06-22T00:00:14;102032.34;;;16.60;100.00
47054;BME280;32811;52.382;5.270;2023-06-22T00:02:41;102042.78;;;16.60;100.00
47054;BME280;32811;52.382;5.270;2023-06-22T00:05:07;102048.00;;;16.59;100.00
47054;BME280;32811;52.382;5.270;2023-06-22T00:07:34;102052.34;;;16.57;100.00
47054;BME280;32811;52.382;5.270;2023-06-22T00:10:00;102048.00;;;16.53;100.00
47054;BME280;32811;52.382;5.270;2023-06-22T00:12:27;102046.25;;;16.58;100.00
47054;BME280;32811;52.382;5.270;2023-06-22T00:14:54;102041.91;;;16.54;100.00
47054;BME280;32811;52.382;5.270;2023-06-22T00:17:20;102038.44;;;16.55;100.00
47054;BME280;32811;52.382;5.270;2023-06-22T00:19:47;102041.94;;;16.52;100.00
47054;BME280;32811;52.382;5.270;2023-06-22T00:22:14;102051.47;;;16.53;100.00
47054;BME280;32811;52.382;5.270;2023-06-22T00:24:41;102061.03;;;16.53;100.00
47054;BME280;32811;52.382;5.270;2023-06-22T00:27:08;102048.88;;;16.46;100.00
47054;BME280;32811;52.382;5.270;2023-06-22T00:29:34;102053.22;;;16.51;100.00
47054;BME280;32811;52.382;5.270;2023-06-22T00:32:01;102057.56;;;16.52;100.00
47054;BME280;32811;52.382;5.270;2023-06-22T00:34:28;102063.63;;;16.50;100.00
47054;BME280;32811;52.382;5.270;2023-06-22T00:36:54;102061.91;;;16.46;100.00
47054;BME280;32811;52.382;5.270;2023-06-22T00:39:21;102055.84;;;16.39;100.00
47054;BME280;32811;52.382;5.270;2023-06-22T00:41:47;102066.25;;;16.39;100.00
47054;BME280;32811;52.382;5.270;2023-06-22T00:44:14;102064.50;;;16.36;100.00
47054;BME280;32811;52.382;5.270;2023-06-22T00:46:40;102051.47;;;16.32;100.00
47054;BME280;32811;52.382;5.270;2023-06-22T00:49:07;102049.75;;;16.37;100.00
47054;BME280;32811;52.382;5.270;2023-06-22T00:51:34;102045.41;;;16.33;100.00
47054;BME280;32811;52.382;5.270;2023-06-22T00:54:04;102054.06;;;16.32;100.00
47054;BME280;32811;52.382;5.270;2023-06-22T00:56:32;102048.03;;;16.28;100.00
47054;BME280;32811;52.382;5.270;2023-06-22T00:58:59;102038.47;;;16.26;100.00
47054;BME280;32811;52.382;5.270;2023-06-22T01:01:26;102035.88;;;16.26;100.00
47054;BME280;32811;52.382;5.270;2023-06-22T01:03:53;102039.34;;;16.23;100.00
47054;BME280;32811;52.382;5.270;2023-06-22T01:06:34;102032.38;;;16.16;100.00
47054;BME280;32811;52.382;5.270;2023-06-22T01:09:15;102034.09;;;16.18;100.00
47054;BME280;32811;52.382;5.270;2023-06-22T01:11:45;102034.13;;;16.17;100.00
47054;BME280;32811;52.382;5.270;2023-06-22T01:14:24;102028.88;;;16.18;100.00
47054;BME280;32811;52.382;5.270;2023-06-22T01:16:54;102028.03;;;16.15;100.00
47054;BME280;32811;52.382;5.270;2023-06-22T01:22:02;102035.84;;;16.13;100.00
47054;BME280;32811;52.382;5.270;2023-06-22T01:24:33;102034.09;;;16.11;100.00
47054;BME280;32811;52.382;5.270;2023-06-22T01:27:26;102041.06;;;16.10;100.00
47054;BME280;32811;52.382;5.270;2023-06-22T01:29:57;102041.91;;;16.09;100.00
47054;BME280;32811;52.382;5.270;2023-06-22T01:35:10;102033.22;;;15.98;100.00
47054;BME280;32811;52.382;5.270;2023-06-22T01:37:38;102035.84;;;16.00;100.00
47054;BME280;32811;52.382;5.270;2023-06-22T01:40:07;102025.44;;;15.96;100.00
47054;BME280;32811;52.382;5.270;2023-06-22T01:42:37;102025.41;;;15.98;100.00
47054;BME280;32811;52.382;5.270;2023-06-22T01:45:05;102023.66;;;15.94;100.00
47054;BME280;32811;52.382;5.270;2023-06-22T01:47:33;102028.00;;;15.93;100.00
47054;BME280;32811;52.382;5.270;2023-06-22T01:50:00;102024.56;;;15.85;100.00
47054;BME280;32811;52.382;5.270;2023-06-22T01:52:27;102035.81;;;15.93;100.00
47054;BME280;32811;52.382;5.270;2023-06-22T01:54:54;102036.69;;;15.88;100.00
47054;BME280;32811;52.382;5.270;2023-06-22T01:57:21;102025.41;;;15.81;100.00
47054;BME280;32811;52.382;5.270;2023-06-22T02:00:04;102038.41;;;15.83;100.00
47054;BME280;32811;52.382;5.270;2023-06-22T02:02:39;102033.19;;;15.83;100.00
47054;BME280;32811;52.382;5.270;2023-06-22T02:05:08;102025.38;;;15.83;100.00
47054;BME280;32811;52.382;5.270;2023-06-22T02:07:45;102021.94;;;15.74;100.00
47054;BME280;32811;52.382;5.270;2023-06-22T02:10:15;102021.06;;;15.77;100.00
47054;BME280;32811;52.382;5.270;2023-06-22T02:12:45;102012.38;;;15.73;100.00
47054;BME280;32811;52.382;5.270;2023-06-22T02:15:12;102012.31;;;15.69;100.00
47054;BME280;32811;52.382;5.270;2023-06-22T02:17:40;102001.91;;;15.61;100.00
47054;BME280;32811;52.382;5.270;2023-06-22T02:20:12;102021.88;;;15.65;100.00
47054;BME280;32811;52.382;5.270;2023-06-22T02:22:40;102020.09;;;15.63;100.00
47054;BME280;32811;52.382;5.270;2023-06-22T02:25:07;102010.59;;;15.59;100.00
47054;BME280;32811;52.382;5.270;2023-06-22T02:27:34;102004.50;;;15.56;100.00
47054;BME280;32811;52.382;5.270;2023-06-22T02:30:00;102005.34;;;15.51;100.00
47054;BME280;32811;52.382;5.270;2023-06-22T02:32:27;102014.88;;;15.53;100.00
47054;BME280;32811;52.382;5.270;2023-06-22T02:34:53;102006.19;;;15.51;100.00
47054;BME280;32811;52.382;5.270;2023-06-22T02:37:20;102005.34;;;15.46;100.00
47054;BME280;32811;52.382;5.270;2023-06-22T02:39:47;102024.41;;;15.48;100.00
47054;BME280;32811;52.382;5.270;2023-06-22T02:42:13;102013.97;;;15.42;100.00
47054;BME280;32811;52.382;5.270;2023-06-22T02:44:41;102017.47;;;15.44;100.00
47054;BME280;32811;52.382;5.270;2023-06-22T02:47:08;102017.47;;;15.44;100.00
47054;BME280;32811;52.382;5.270;2023-06-22T02:53:15;102020.09;;;15.43;100.00
47054;BME280;32811;52.382;5.270;2023-06-22T02:55:42;102026.16;;;15.43;100.00
47054;BME280;32811;52.382;5.270;2023-06-22T02:58:09;102018.31;;;15.40;100.00
47054;BME280;32811;52.382;5.270;2023-06-22T03:00:35;102020.09;;;15.47;100.00
47054;BME280;32811;52.382;5.270;2023-06-22T03:03:02;102016.63;;;15.50;100.00
47054;BME280;32811;52.382;5.270;2023-06-22T03:05:29;102012.31;;;15.56;100.00
47054;BME280;32811;52.382;5.270;2023-06-22T03:07:55;102010.53;;;15.48;100.00
47054;BME280;32811;52.382;5.270;2023-06-22T03:10:22;102015.72;;;15.49;100.00
47054;BME280;32811;52.382;5.270;2023-06-22T03:12:48;102010.53;;;15.49;100.00
47054;BME280;32811;52.382;5.270;2023-06-22T03:15:15;102014.00;;;15.47;100.00
47054;BME280;32811;52.382;5.270;2023-06-22T03:17:44;102017.47;;;15.46;100.00
47054;BME280;32811;52.382;5.270;2023-06-22T03:20:12;102005.34;;;15.43;100.00
47054;BME280;32811;52.382;5.270;2023-06-22T03:22:40;102004.47;;;15.43;100.00
47054;BME280;32811;52.382;5.270;2023-06-22T03:25:08;102012.25;;;15.41;100.00
47054;BME280;32811;52.382;5.270;2023-06-22T03:27:40;102007.03;;;15.35;100.00
47054;BME280;32811;52.382;5.270;2023-06-22T03:30:09;102001.81;;;15.35;100.00
47054;BME280;32811;52.382;5.270;2023-06-22T03:32:36;102006.19;;;15.39;100.00
47054;BME280;32811;52.382;5.270;2023-06-22T03:35:03;102010.50;;;15.34;100.00
47054;BME280;32811;52.382;5.270;2023-06-22T03:37:31;102015.72;;;15.39;100.00
47054;BME280;32811;52.382;5.270;2023-06-22T03:39:58;102025.28;;;15.43;100.00
47054;BME280;32811;52.382;5.270;2023-06-22T03:42:26;102015.72;;;15.40;100.00
47054;BME280;32811;52.382;5.270;2023-06-22T03:44:52;101997.47;;;15.35;100.00
47054;BME280;32811;52.382;5.270;2023-06-22T03:47:19;101997.50;;;15.40;100.00
47054;BME280;32811;52.382;5.270;2023-06-22T03:49:45;102000.13;;;15.39;100.00
47054;BME280;32811;52.382;5.270;2023-06-22T03:52:12;102004.44;;;15.40;100.00
47054;BME280;32811;52.382;5.270;2023-06-22T03:54:39;101995.78;;;15.44;100.00
47054;BME280;32811;52.382;5.270;2023-06-22T03:57:05;101993.16;;;15.42;100.00
47054;BME280;32811;52.382;5.270;2023-06-22T03:59:32;101991.44;;;15.41;100.00
47054;BME280;32811;52.382;5.270;2023-06-22T04:01:59;102007.09;;;15.47;100.00
47054;BME280;32811;52.382;5.270;2023-06-22T04:04:26;102007.94;;;15.48;100.00
47054;BME280;32811;52.382;5.270;2023-06-22T04:06:52;102011.41;;;15.51;100.00
47054;BME280;32811;52.382;5.270;2023-06-22T04:09:19;102004.47;;;15.49;100.00
47054;BME280;32811;52.382;5.270;2023-06-22T04:11:47;102012.28;;;15.50;100.00
47054;BME280;32811;52.382;5.270;2023-06-22T04:14:14;102008.81;;;15.51;100.00
47054;BME280;32811;52.382;5.270;2023-06-22T04:16:41;102016.66;;;15.61;100.00
47054;BME280;32811;52.382;5.270;2023-06-22T04:19:07;102014.06;;;15.68;100.00
47054;BME280;32811;52.382;5.270;2023-06-22T04:21:39;102009.78;;;15.83;100.00
47054;BME280;32811;52.382;5.270;2023-06-22T04:24:07;102003.72;;;15.85;100.00
47054;BME280;32811;52.382;5.270;2023-06-22T04:26:33;101998.50;;;15.88;100.00
47054;BME280;32811;52.382;5.270;2023-06-22T04:29:04;102007.22;;;15.96;100.00
47054;BME280;32811;52.382;5.270;2023-06-22T04:31:32;102006.31;;;16.02;100.00
47054;BME280;32811;52.382;5.270;2023-06-22T04:34:04;102009.81;;;16.10;100.00
47054;BME280;32811;52.382;5.270;2023-06-22T04:36:39;101995.91;;;16.13;100.00
47054;BME280;32811;52.382;5.270;2023-06-22T04:39:11;102001.09;;;16.21;100.00
47054;BME280;32811;52.382;5.270;2023-06-22T04:41:39;102000.25;;;16.28;100.00
47054;BME280;32811;52.382;5.270;2023-06-22T04:44:13;102005.44;;;16.38;100.00
47054;BME280;32811;52.382;5.270;2023-06-22T04:46:40;102000.22;;;16.46;100.00
47054;BME280;32811;52.382;5.270;2023-06-22T04:49:07;101989.81;;;16.45;100.00
47054;BME280;32811;52.382;5.270;2023-06-22T04:51:40;101995.00;;;16.57;100.00
47054;BME280;32811;52.382;5.270;2023-06-22T04:54:08;101991.50;;;16.67;100.00
47054;BME280;32811;52.382;5.270;2023-06-22T04:56:35;101990.63;;;16.82;100.00
47054;BME280;32811;52.382;5.270;2023-06-22T04:59:02;101986.25;;;16.90;100.00
47054;BME280;32811;52.382;5.270;2023-06-22T05:01:29;101989.66;;;17.08;100.00
47054;BME280;32811;52.382;5.270;2023-06-22T05:03:58;101994.81;;;17.25;100.00
47054;BME280;32811;52.382;5.270;2023-06-22T05:06:28;101994.72;;;17.38;100.00
47054;BME280;32811;52.382;5.270;2023-06-22T05:08:55;101998.13;;;17.54;100.00
47054;BME280;32811;52.382;5.270;2023-06-22T05:11:28;101989.28;;;17.74;100.00
47054;BME280;32811;52.382;5.270;2023-06-22T05:13:55;101986.56;;;17.94;100.00
47054;BME280;32811;52.382;5.270;2023-06-22T05:16:22;101980.22;;;18.21;100.00
47054;BME280;32811;52.382;5.270;2023-06-22T05:19:23;101979.75;;;18.70;100.00
47054;BME280;32811;52.382;5.270;2023-06-22T05:21:50;101964.69;;;18.91;100.00
47054;BME280;32811;52.382;5.270;2023-06-22T05:24:17;101964.44;;;19.12;100.00
47054;BME280;32811;52.382;5.270;2023-06-22T05:26:43;101964.91;;;19.42;100.00
47054;BME280;32811;52.382;5.270;2023-06-22T05:29:10;101958.66;;;19.50;100.00
47054;BME280;32811;52.382;5.270;2023-06-22T05:31:36;101956.53;;;19.79;100.00
47054;BME280;32811;52.382;5.270;2023-06-22T05:34:03;101947.66;;;19.87;100.00
47054;BME280;32811;52.382;5.270;2023-06-22T05:36:30;101942.66;;;20.22;100.00
47054;BME280;32811;52.382;5.270;2023-06-22T05:38:57;101952.41;;;20.14;100.00
47054;BME280;32811;52.382;5.270;2023-06-22T05:41:24;101951.38;;;20.24;100.00
47054;BME280;32811;52.382;5.270;2023-06-22T05:43:51;101949.72;;;20.66;100.00
47054;BME280;32811;52.382;5.270;2023-06-22T05:46:18;101956.28;;;20.87;100.00
47054;BME280;32811;52.382;5.270;2023-06-22T05:48:45;101959.31;;;21.11;100.00
47054;BME280;32811;52.382;5.270;2023-06-22T05:51:12;101952.81;;;21.27;100.00
47054;BME280;32811;52.382;5.270;2023-06-22T05:53:38;101945.31;;;21.49;100.00
47054;BME280;32811;52.382;5.270;2023-06-22T05:56:05;101951.53;;;21.83;100.00
47054;BME280;32811;52.382;5.270;2023-06-22T05:58:32;101957.00;;;21.73;100.00
47054;BME280;32811;52.382;5.270;2023-06-22T06:00:58;101963.63;;;21.90;100.00
47054;BME280;32811;52.382;5.270;2023-06-22T06:03:27;101966.63;;;22.10;100.00
47054;BME280;32811;52.382;5.270;2023-06-22T06:05:55;101956.81;;;22.50;100.00
47054;BME280;32811;52.382;5.270;2023-06-22T06:08:22;101952.19;;;22.89;100.00
47054;BME280;32811;52.382;5.270;2023-06-22T06:10:49;101959.81;;;23.28;100.00
47054;BME280;32811;52.382;5.270;2023-06-22T06:13:16;101956.28;;;23.29;100.00
47054;BME280;32811;52.382;5.270;2023-06-22T06:15:42;101955.72;;;22.57;100.00
47054;BME280;32811;52.382;5.270;2023-06-22T06:18:09;101954.22;;;21.44;100.00
47054;BME280;32811;52.382;5.270;2023-06-22T06:20:37;101974.81;;;21.22;100.00
47054;BME280;32811;52.382;5.270;2023-06-22T06:23:04;101970.13;;;20.96;100.00
47054;BME280;32811;52.382;5.270;2023-06-22T06:25:43;101965.69;;;20.99;100.00
47054;BME280;32811;52.382;5.270;2023-06-22T06:28:09;101966.09;;;21.21;100.00
47054;BME280;32811;52.382;5.270;2023-06-22T06:30:37;101958.16;;;21.23;100.00
47054;BME280;32811;52.382;5.270;2023-06-22T06:33:03;101953.59;;;21.31;100.00
47054;BME280;32811;52.382;5.270;2023-06-22T06:35:35;101951.28;;;21.58;100.00
47054;BME280;32811;52.382;5.270;2023-06-22T06:38:02;101949.19;;;22.06;100.00
47054;BME280;32811;52.382;5.270;2023-06-22T06:40:29;101943.78;;;22.45;100.00
47054;BME280;32811;52.382;5.270;2023-06-22T06:42:56;101931.88;;;22.63;100.00
47054;BME280;32811;52.382;5.270;2023-06-22T06:45:24;101936.25;;;23.24;100.00
47054;BME280;32811;52.382;5.270;2023-06-22T06:47:52;101929.91;;;23.57;100.00
47054;BME280;32811;52.382;5.270;2023-06-22T06:50:20;101924.88;;;23.23;100.00
47054;BME280;32811;52.382;5.270;2023-06-22T06:52:49;101925.28;;;23.09;100.00
47054;BME280;32811;52.382;5.270;2023-06-22T06:55:17;101928.75;;;23.66;100.00
47054;BME280;32811;52.382;5.270;2023-06-22T06:57:44;101925.38;;;23.89;100.00
47054;BME280;32811;52.382;5.270;2023-06-22T07:00:15;101929.22;;;23.79;100.00
47054;BME280;32811;52.382;5.270;2023-06-22T07:02:43;101927.41;;;23.53;100.00
47054;BME280;32811;52.382;5.270;2023-06-22T07:05:11;101929.56;;;24.20;100.00
47054;BME280;32811;52.382;5.270;2023-06-22T07:07:39;101926.16;;;24.41;100.00
47054;BME280;32811;52.382;5.270;2023-06-22T07:10:06;101927.53;;;24.03;100.00
47054;BME280;32811;52.382;5.270;2023-06-22T07:12:33;101926.44;;;24.09;100.00
47054;BME280;32811;52.382;5.270;2023-06-22T07:15:04;101920.13;;;23.89;100.00
47054;BME280;32811;52.382;5.270;2023-06-22T07:17:31;101922.06;;;24.09;100.00
47054;BME280;32811;52.382;5.270;2023-06-22T07:19:58;101908.16;;;24.29;100.00
47054;BME280;32811;52.382;5.270;2023-06-22T07:22:25;101902.88;;;24.04;100.00
47054;BME280;32811;52.382;5.270;2023-06-22T07:24:52;101911.66;;;24.30;100.00
47054;BME280;32811;52.382;5.270;2023-06-22T07:27:18;101907.50;;;24.48;100.00
47054;BME280;32811;52.382;5.270;2023-06-22T07:29:46;101910.25;;;24.68;100.00
47054;BME280;32811;52.382;5.270;2023-06-22T07:32:12;101913.84;;;24.89;100.00
47054;BME280;32811;52.382;5.270;2023-06-22T07:34:39;101900.47;;;24.94;100.00
47054;BME280;32811;52.382;5.270;2023-06-22T07:37:06;101903.28;;;24.89;100.00
47054;BME280;32811;52.382;5.270;2023-06-22T07:39:33;101908.91;;;25.03;100.00
47054;BME280;32811;52.382;5.270;2023-06-22T07:42:00;101902.91;;;25.22;100.00
47054;BME280;32811;52.382;5.270;2023-06-22T07:44:26;101901.25;;;25.41;100.00
47054;BME280;32811;52.382;5.270;2023-06-22T07:46:53;101900.31;;;25.42;100.00
47054;BME280;32811;52.382;5.270;2023-06-22T07:49:21;101894.38;;;25.37;100.00
47054;BME280;32811;52.382;5.270;2023-06-22T07:51:47;101899.28;;;25.46;100.00
47054;BME280;32811;52.382;5.270;2023-06-22T07:54:14;101894.81;;;25.69;100.00
47054;BME280;32811;52.382;5.270;2023-06-22T07:56:42;101893.22;;;25.65;100.00
47054;BME280;32811;52.382;5.270;2023-06-22T07:59:09;101892.91;;;25.30;100.00
47054;BME280;32811;52.382;5.270;2023-06-22T08:01:36;101869.19;;;25.05;100.00
47054;BME280;32811;52.382;5.270;2023-06-22T08:04:03;101884.66;;;25.38;100.00
47054;BME280;32811;52.382;5.270;2023-06-22T08:06:30;101878.13;;;25.02;100.00
47054;BME280;32811;52.382;5.270;2023-06-22T08:08:57;101880.47;;;25.10;100.00
47054;BME280;32811;52.382;5.270;2023-06-22T08:11:25;101884.63;;;25.80;100.00
47054;BME280;32811;52.382;5.270;2023-06-22T08:13:52;101866.84;;;25.84;100.00
47054;BME280;32811;52.382;5.270;2023-06-22T08:16:19;101878.25;;;26.06;100.00
47054;BME280;32811;52.382;5.270;2023-06-22T08:18:45;101859.31;;;25.75;100.00
47054;BME280;32811;52.382;5.270;2023-06-22T08:21:15;101885.84;;;25.94;100.00
47054;BME280;32811;52.382;5.270;2023-06-22T08:23:42;101880.09;;;25.84;100.00
47054;BME280;32811;52.382;5.270;2023-06-22T08:26:08;101877.09;;;26.12;100.00
47054;BME280;32811;52.382;5.270;2023-06-22T08:28:35;101872.44;;;26.38;100.00
47054;BME280;32811;52.382;5.270;2023-06-22T08:31:02;101863.75;;;26.34;100.00
47054;BME280;32811;52.382;5.270;2023-06-22T08:33:30;101857.94;;;26.07;100.00
47054;BME280;32811;52.382;5.270;2023-06-22T08:35:58;101841.53;;;26.19;100.00
47054;BME280;32811;52.382;5.270;2023-06-22T08:38:25;101855.16;;;25.89;100.00
47054;BME280;32811;52.382;5.270;2023-06-22T08:40:52;101848.50;;;26.20;100.00
47054;BME280;32811;52.382;5.270;2023-06-22T08:43:19;101828.31;;;25.99;100.00
47054;BME280;32811;52.382;5.270;2023-06-22T08:45:47;101822.41;;;26.13;100.00
47054;BME280;32811;52.382;5.270;2023-06-22T08:48:14;101837.66;;;26.26;100.00
47054;BME280;32811;52.382;5.270;2023-06-22T08:50:40;101825.06;;;26.50;100.00
47054;BME280;32811;52.382;5.270;2023-06-22T08:53:07;101845.00;;;26.59;100.00
47054;BME280;32811;52.382;5.270;2023-06-22T08:55:34;101835.78;;;26.85;100.00
47054;BME280;32811;52.382;5.270;2023-06-22T08:58:01;101844.34;;;27.09;100.00
47054;BME280;32811;52.382;5.270;2023-06-22T09:00:27;101837.94;;;26.96;100.00
47054;BME280;32811;52.382;5.270;2023-06-22T09:02:55;101830.44;;;27.23;100.00
47054;BME280;32811;52.382;5.270;2023-06-22T09:05:25;101827.09;;;27.37;99.38
47054;BME280;32811;52.382;5.270;2023-06-22T09:07:58;101815.13;;;27.11;100.00
47054;BME280;32811;52.382;5.270;2023-06-22T09:10:25;101827.38;;;27.13;100.00
47054;BME280;32811;52.382;5.270;2023-06-22T09:12:54;101803.50;;;27.13;100.00
47054;BME280;32811;52.382;5.270;2023-06-22T09:15:21;101814.31;;;27.45;100.00
47054;BME280;32811;52.382;5.270;2023-06-22T09:17:49;101813.63;;;27.05;100.00
47054;BME280;32811;52.382;5.270;2023-06-22T09:20:16;101816.25;;;27.24;100.00
47054;BME280;32811;52.382;5.270;2023-06-22T09:22:43;101799.59;;;27.40;100.00
47054;BME280;32811;52.382;5.270;2023-06-22T09:25:10;101819.19;;;27.18;96.45
47054;BME280;32811;52.382;5.270;2023-06-22T09:27:37;101819.78;;;27.42;99.86
47054;BME280;32811;52.382;5.270;2023-06-22T09:30:04;101808.63;;;27.36;92.79
47054;BME280;32811;52.382;5.270;2023-06-22T09:32:30;101812.44;;;27.30;97.01
47054;BME280;32811;52.382;5.270;2023-06-22T09:34:57;101812.06;;;27.38;92.32
47054;BME280;32811;52.382;5.270;2023-06-22T09:37:24;101804.34;;;27.84;94.79
47054;BME280;32811;52.382;5.270;2023-06-22T09:39:51;101811.28;;;27.53;96.01
47054;BME280;32811;52.382;5.270;2023-06-22T09:42:17;101802.13;;;27.41;96.75
47054;BME280;32811;52.382;5.270;2023-06-22T09:44:44;101808.50;;;27.20;98.69
47054;BME280;32811;52.382;5.270;2023-06-22T09:47:10;101814.66;;;26.66;100.00
47054;BME280;32811;52.382;5.270;2023-06-22T09:49:37;101812.91;;;26.46;100.00
47054;BME280;32811;52.382;5.270;2023-06-22T09:52:13;101824.41;;;26.26;100.00
47054;BME280;32811;52.382;5.270;2023-06-22T09:54:40;101812.03;;;26.08;100.00
47054;BME280;32811;52.382;5.270;2023-06-22T09:57:07;101805.69;;;25.92;100.00
47054;BME280;32811;52.382;5.270;2023-06-22T09:59:33;101819.81;;;25.92;100.00
47054;BME280;32811;52.382;5.270;2023-06-22T10:02:00;101813.78;;;25.68;100.00
47054;BME280;32811;52.382;5.270;2023-06-22T10:04:27;101808.59;;;25.85;100.00
47054;BME280;32811;52.382;5.270;2023-06-22T10:06:54;101811.97;;;25.68;100.00
47054;BME280;32811;52.382;5.270;2023-06-22T10:09:20;101793.53;;;25.87;100.00
47054;BME280;32811;52.382;5.270;2023-06-22T10:11:47;101777.53;;;25.70;100.00
47054;BME280;32811;52.382;5.270;2023-06-22T10:14:14;101798.34;;;25.78;100.00
47054;BME280;32811;52.382;5.270;2023-06-22T10:16:43;101801.16;;;25.54;100.00
47054;BME280;32811;52.382;5.270;2023-06-22T10:19:10;101797.03;;;25.47;100.00
47054;BME280;32811;52.382;5.270;2023-06-22T10:21:36;101792.50;;;25.51;100.00
47054;BME280;32811;52.382;5.270;2023-06-22T10:24:03;101790.78;;;25.70;100.00
47054;BME280;32811;52.382;5.270;2023-06-22T10:26:33;101788.41;;;25.43;100.00
47054;BME280;32811;52.382;5.270;2023-06-22T10:29:00;101784.28;;;25.36;100.00
47054;BME280;32811;52.382;5.270;2023-06-22T10:31:37;101772.34;;;25.05;100.00
47054;BME280;32811;52.382;5.270;2023-06-22T10:34:10;101766.84;;;24.68;100.00
47054;BME280;32811;52.382;5.270;2023-06-22T10:36:45;101758.72;;;24.50;100.00
47054;BME280;32811;52.382;5.270;2023-06-22T10:39:15;101792.53;;;24.62;100.00
47054;BME280;32811;52.382;5.270;2023-06-22T10:41:42;101788.16;;;24.63;100.00
47054;BME280;32811;52.382;5.270;2023-06-22T10:44:08;101783.91;;;24.59;100.00
47054;BME280;32811;52.382;5.270;2023-06-22T10:46:35;101796.53;;;24.51;100.00
47054;BME280;32811;52.382;5.270;2023-06-22T10:49:05;101761.63;;;24.20;100.00
47054;BME280;32811;52.382;5.270;2023-06-22T10:51:31;101792.25;;;24.47;100.00
47054;BME280;32811;52.382;5.270;2023-06-22T10:53:58;101804.59;;;24.46;100.00
47054;BME280;32811;52.382;5.270;2023-06-22T10:56:28;101780.94;;;24.21;100.00
47054;BME280;32811;52.382;5.270;2023-06-22T11:01:50;101767.22;;;24.11;100.00
47054;BME280;32811;52.382;5.270;2023-06-22T11:04:30;101774.03;;;23.93;100.00
47054;BME280;32811;52.382;5.270;2023-06-22T11:06:57;101756.63;;;23.89;100.00
47054;BME280;32811;52.382;5.270;2023-06-22T11:09:32;101799.00;;;24.08;100.00
47054;BME280;32811;52.382;5.270;2023-06-22T11:12:04;101799.31;;;23.99;100.00
47054;BME280;32811;52.382;5.270;2023-06-22T11:14:38;101781.59;;;23.79;100.00
47054;BME280;32811;52.382;5.270;2023-06-22T11:17:07;101771.78;;;23.57;100.00
47054;BME280;32811;52.382;5.270;2023-06-22T11:19:34;101775.34;;;23.56;100.00
47054;BME280;32811;52.382;5.270;2023-06-22T11:22:01;101794.63;;;23.57;100.00
47054;BME280;32811;52.382;5.270;2023-06-22T11:24:28;101796.97;;;23.39;100.00
47054;BME280;32811;52.382;5.270;2023-06-22T11:26:55;101781.00;;;23.19;100.00
47054;BME280;32811;52.382;5.270;2023-06-22T11:29:28;101808.78;;;23.54;100.00
47054;BME280;32811;52.382;5.270;2023-06-22T11:32:06;101783.66;;;23.44;100.00
47054;BME280;32811;52.382;5.270;2023-06-22T11:34:40;101799.91;;;23.57;100.00
47054;BME280;32811;52.382;5.270;2023-06-22T11:37:06;101797.72;;;23.70;100.00
47054;BME280;32811;52.382;5.270;2023-06-22T11:39:33;101764.88;;;23.28;100.00
47054;BME280;32811;52.382;5.270;2023-06-22T11:42:09;101792.16;;;23.52;100.00
47054;BME280;32811;52.382;5.270;2023-06-22T11:44:39;101784.38;;;23.49;100.00
47054;BME280;32811;52.382;5.270;2023-06-22T11:47:06;101790.44;;;23.78;100.00
47054;BME280;32811;52.382;5.270;2023-06-22T11:49:33;101787.72;;;23.79;100.00
47054;BME280;32811;52.382;5.270;2023-06-22T11:51:59;101780.53;;;23.85;100.00
47054;BME280;32811;52.382;5.270;2023-06-22T11:54:26;101772.38;;;23.91;100.00
47054;BME280;32811;52.382;5.270;2023-06-22T11:56:53;101760.22;;;23.87;100.00
47054;BME280;32811;52.382;5.270;2023-06-22T11:59:20;101763.72;;;23.87;100.00
47054;BME280;32811;52.382;5.270;2023-06-22T12:01:48;101771.00;;;23.80;100.00
47054;BME280;32811;52.382;5.270;2023-06-22T12:04:17;101757.69;;;23.58;100.00
47054;BME280;32811;52.382;5.270;2023-06-22T12:06:46;101731.06;;;23.41;100.00
47054;BME280;32811;52.382;5.270;2023-06-22T12:09:13;101727.53;;;23.42;100.00
47054;BME280;32811;52.382;5.270;2023-06-22T12:11:45;101732.56;;;23.48;100.00
47054;BME280;32811;52.382;5.270;2023-06-22T12:14:15;101760.03;;;23.66;100.00
47054;BME280;32811;52.382;5.270;2023-06-22T12:16:55;101736.06;;;23.49;100.00
47054;BME280;32811;52.382;5.270;2023-06-22T12:19:30;101728.72;;;23.33;100.00
47054;BME280;32811;52.382;5.270;2023-06-22T12:22:02;101699.31;;;23.20;100.00
47054;BME280;32811;52.382;5.270;2023-06-22T12:24:31;101734.47;;;23.45;100.00
47054;BME280;32811;52.382;5.270;2023-06-22T12:26:58;101718.09;;;23.35;100.00
47054;BME280;32811;52.382;5.270;2023-06-22T12:29:25;101728.75;;;23.32;100.00
47054;BME280;32811;52.382;5.270;2023-06-22T12:31:51;101724.88;;;23.17;100.00
47054;BME280;32811;52.382;5.270;2023-06-22T12:34:18;101731.75;;;23.21;100.00
47054;BME280;32811;52.382;5.270;2023-06-22T12:36:44;101738.00;;;23.18;100.00
47054;BME280;32811;52.382;5.270;2023-06-22T12:39:14;101731.88;;;23.18;100.00
47054;BME280;32811;52.382;5.270;2023-06-22T12:41:40;101732.34;;;23.04;100.00
47054;BME280;32811;52.382;5.270;2023-06-22T12:44:07;101730.53;;;22.78;100.00
47054;BME280;32811;52.382;5.270;2023-06-22T12:46:34;101741.41;;;22.67;100.00
47054;BME280;32811;52.382;5.270;2023-06-22T12:49:04;101744.56;;;22.50;100.00
47054;BME280;32811;52.382;5.270;2023-06-22T12:51:31;101716.44;;;22.24;100.00
47054;BME280;32811;52.382;5.270;2023-06-22T12:53:58;101721.72;;;22.23;100.00
47054;BME280;32811;52.382;5.270;2023-06-22T12:56:24;101723.63;;;22.17;100.00